Capitol Logistics 971


KMIA
Miami International Airport
Miami, Florida, US
EHAM
Schiphol International Airport
Amsterdam, , NL

Route Details

Aircraft Information
Primary: Boeing 747-400BCF
Backup: Boeing 777-200LRF
Route Data
Distance: 4023nm
Sched. Duration: 8h 00m
Avg. Duration: 9h 78m (+178m)
Times Flown: 3
Recm'd Route: PADUS2 PADUS BR70V ZFP BR71V WLKER NUCAR A699 SUMRS M204 LUNKR 3700N/06000W 4200N/05000W 4400N/04000W 4500N/03500W 4500N/03000W 4500N/02500W 4600N/02000W 4600N/01500W 4700N/01000W UMLER UN734 UMOXA UN531 MADEK UT7 MABUG P86 KOXOD N19 SAM L620 MID UM185 KOBBI M197 REDFA REDFA1A
Planned Altitude: 31,000ft
Origin Wx: KMIA 290153Z 11011KT 10SM SCT023 SCT200 BKN250 28/24 A3007 RMK AO2 SLP182 T02780244
Dest. Wx: EHAM 290225Z 08010KT CAVOK 09/05 Q1031 NOSIG
Notes: SEASONAL FLIGHT

Financial History
Total Freight: 171,180lbs
Average Load: 57,060lbs/flt
Fuel Used: 494,412lbs
Avg. Fuel Used: 164,804lbs/flt
Fuel Expense: $608,127
Avg. Fuel Expense: $202,709
Avg. Fuel Cost: $1.23/lbs
Total Gross Income: $409,120
Pilot Pay: $607
Total Expenses: $44,341
Total Revenue: $-250,708
Average Revenue: $136,373.40